YCFS

Details ICAO YCFS
Name Coffs Harbour
Region Australia
Timezone Australia/Sydney (UTC+11.0)
Plans Departing 38
Arriving 41
Stats Elevation 18 ft / 5 m (AMSL)
Location -30.324426° 153.115959°
Runways 2
Magnetic Variation 11.916° E
Sunrise 2017-12-13 18:41:01 UTC / 2017-12-14 05:41:01 Local
Sunset 2017-12-14 08:45:50 UTC / 2017-12-14 19:45:50 Local
Advertisement - Login to hide

Runways

ID Width Length Bearing (true) Bearing (mag) Surface Threshold Offset Overrun Length
03 148 ft / 45 m 6,832 ft / 2,082 m 40.57° 28.65° Asphalt 0 ft / 0 m 0 ft / 0 m
10 59 ft / 18 m 2,792 ft / 851 m 107.17° 95.25° Asphalt 262 ft / 80 m 0 ft / 0 m
21 148 ft / 45 m 6,832 ft / 2,082 m 220.57° 208.65° Asphalt 0 ft / 0 m 0 ft / 0 m
28 59 ft / 18 m 2,792 ft / 851 m 287.16° 275.24° Asphalt 66 ft / 20 m 0 ft / 0 m

Map

Weather


0- 5 10 15 20 25 30 35+ Temperature / ° C

Clouds and Precipitation
Forecast for 2017-12-13 18:00 UTC. Updated an hour ago

Ground ~20,000 ft ~40,000 ft Winds

METAR

YCFS 131830Z AUTO 01011KT 9999 // NCD 21/17 Q1012 RF00.0/000.0

TAF

TAF YCFS 131655Z 1318/1418 35008KT 9999 FEW020 FM132200 01014KT CAVOK FM140200 04015KT CAVOK FM140800 02012KT CAVOK

Frequencies

Recorded 130.30 MHz YSCH ATIS
Unicom 118.20 MHz COFFS HARBOUR MULT
Tower 122.60 MHz BRISBANE CNTR
Unicom 125.10 MHz ACTIVATE LIGHTS ONLY MULT
Tower 118.20 MHz COFFS TWR
Warning: Do not use this data for real-world aviation or navigation. No guarantee of current accuracy is given.